createdAt,value
2018-10-16T00:02:20.976Z,85.87
2018-10-16T00:04:49.317Z,86.04
2018-10-16T00:07:17.633Z,85.66
2018-10-16T00:09:46.000Z,86.52
2018-10-16T00:12:14.309Z,86.59
2018-10-16T00:14:42.599Z,86.05
2018-10-16T00:17:10.938Z,86.06
2018-10-16T00:19:39.229Z,85.62
2018-10-16T00:22:07.578Z,85.92
2018-10-16T00:24:35.888Z,85.91
2018-10-16T00:27:04.183Z,86.09
2018-10-16T00:29:32.509Z,86.18
2018-10-16T00:32:00.836Z,85.94
2018-10-16T00:34:29.166Z,87.12
2018-10-16T00:36:57.489Z,86.66
2018-10-16T00:39:25.809Z,86.37
2018-10-16T00:41:55.365Z,86.34
2018-10-16T00:44:23.689Z,85.54
2018-10-16T00:46:52.006Z,85.66
2018-10-16T00:49:20.329Z,86.88
2018-10-16T00:51:48.646Z,87.17
2018-10-16T00:54:16.930Z,87.06
2018-10-16T00:56:47.289Z,88.11
2018-10-16T00:59:15.627Z,86.95
2018-10-16T01:01:43.922Z,86.79
2018-10-16T01:04:12.245Z,86.74
2018-10-16T01:06:53.336Z,87.15
2018-10-16T01:09:21.750Z,87.08
2018-10-16T01:11:50.124Z,86.98
2018-10-16T01:14:18.539Z,86.91
2018-10-16T01:16:46.978Z,86.21
2018-10-16T01:19:15.402Z,86.62
2018-10-16T01:21:43.790Z,87.10
2018-10-16T01:24:12.237Z,87.72
2018-10-16T01:26:40.670Z,87.70
2018-10-16T01:29:09.042Z,87.18
2018-10-16T01:31:37.576Z,87.28
2018-10-16T01:34:05.936Z,86.88
2018-10-16T01:36:34.295Z,87.19
2018-10-16T01:39:02.685Z,87.32
2018-10-16T01:41:31.098Z,87.69
2018-10-16T01:43:59.468Z,87.44
2018-10-16T01:46:27.838Z,87.73
2018-10-16T01:48:56.205Z,87.32
2018-10-16T01:51:24.574Z,87.11
2018-10-16T01:53:52.934Z,87.12
2018-10-16T01:56:21.336Z,87.29
2018-10-16T01:58:49.666Z,87.56
2018-10-16T02:01:18.097Z,87.48
2018-10-16T02:03:46.475Z,86.99
2018-10-16T02:06:14.877Z,87.23
2018-10-16T02:08:43.226Z,86.81
2018-10-16T02:11:11.612Z,87.21
2018-10-16T02:13:39.980Z,86.80
2018-10-16T02:16:08.629Z,87.23
2018-10-16T02:18:36.954Z,87.07
2018-10-16T02:21:05.528Z,88.08
2018-10-16T02:23:33.950Z,87.73
2018-10-16T02:26:02.313Z,87.62
2018-10-16T02:28:30.725Z,88.02
2018-10-16T02:30:59.063Z,87.08
2018-10-16T02:33:27.715Z,87.60
2018-10-16T02:35:56.043Z,87.15
2018-10-16T02:38:24.395Z,87.10
2018-10-16T02:40:52.781Z,87.23
2018-10-16T02:43:21.136Z,86.53
2018-10-16T02:45:49.529Z,86.40
2018-10-16T02:48:17.915Z,86.77
2018-10-16T02:50:46.251Z,87.00
2018-10-16T02:53:14.643Z,86.69
2018-10-16T02:55:43.016Z,87.14
2018-10-16T02:58:11.399Z,87.10
2018-10-16T03:00:41.183Z,86.79
2018-10-16T03:03:09.616Z,86.77
2018-10-16T03:05:38.084Z,86.95
2018-10-16T03:08:06.921Z,87.08
2018-10-16T03:10:35.331Z,86.59
2018-10-16T03:13:03.741Z,87.18
2018-10-16T03:15:32.080Z,87.82
2018-10-16T03:18:00.462Z,87.34
2018-10-16T03:20:28.886Z,87.12
2018-10-16T03:22:57.309Z,86.84
2018-10-16T03:25:25.674Z,86.77
2018-10-16T03:27:54.063Z,86.83
2018-10-16T03:30:22.483Z,86.55
2018-10-16T03:32:50.867Z,87.16
2018-10-16T03:35:19.222Z,87.71
2018-10-16T03:37:47.616Z,88.31
2018-10-16T03:40:16.060Z,88.23
2018-10-16T03:42:44.398Z,87.46
2018-10-16T03:45:13.262Z,87.17
2018-10-16T03:47:41.680Z,87.71
2018-10-16T03:50:10.738Z,88.33
2018-10-16T03:52:39.306Z,87.96
2018-10-16T03:55:08.098Z,87.91
2018-10-16T03:57:36.532Z,87.72
2018-10-16T04:00:05.424Z,88.06
2018-10-16T04:02:33.846Z,88.63
2018-10-16T04:05:02.207Z,89.15
2018-10-16T04:07:30.594Z,89.47
2018-10-16T04:09:59.123Z,89.49
2018-10-16T04:12:27.524Z,89.17
2018-10-16T04:14:55.865Z,88.36
2018-10-16T04:17:24.238Z,88.72
2018-10-16T04:19:52.980Z,89.17
2018-10-16T04:22:21.462Z,88.82
2018-10-16T04:24:49.931Z,88.75
2018-10-16T04:27:18.291Z,88.53
2018-10-16T04:29:46.628Z,88.59
2018-10-16T04:32:14.974Z,88.53
2018-10-16T04:34:43.319Z,89.04
2018-10-16T04:37:11.811Z,88.81
2018-10-16T04:39:40.147Z,88.68
2018-10-16T04:42:08.456Z,88.67
2018-10-16T04:44:36.787Z,88.46
2018-10-16T04:47:05.491Z,88.65
2018-10-16T04:49:33.825Z,87.73
2018-10-16T04:52:02.151Z,87.49
2018-10-16T04:54:30.513Z,88.64
2018-10-16T04:56:58.834Z,88.11
2018-10-16T04:59:27.226Z,88.85
2018-10-16T05:01:55.563Z,89.38
2018-10-16T05:04:23.935Z,89.26
2018-10-16T05:06:52.295Z,89.86
2018-10-16T05:09:20.651Z,90.09
2018-10-16T05:11:50.880Z,89.38
2018-10-16T05:14:19.275Z,89.45
2018-10-16T05:16:47.664Z,90.22
2018-10-16T05:19:16.113Z,89.27
2018-10-16T05:21:44.580Z,90.66
2018-10-16T05:24:14.247Z,89.80
2018-10-16T05:26:42.623Z,89.44
2018-10-16T05:29:12.488Z,89.49
2018-10-16T05:31:40.866Z,88.98
2018-10-16T05:34:10.323Z,88.17
2018-10-16T05:36:38.967Z,89.21
2018-10-16T05:39:11.150Z,88.97
2018-10-16T05:41:39.967Z,88.49
2018-10-16T05:44:08.495Z,88.45
2018-10-16T05:46:37.040Z,88.76
2018-10-16T05:49:05.684Z,89.08
2018-10-16T05:51:34.009Z,89.92
2018-10-16T05:54:02.430Z,89.78
2018-10-16T05:56:31.207Z,89.60
2018-10-16T05:59:00.138Z,88.75
2018-10-16T06:01:37.527Z,88.71
2018-10-16T06:04:06.997Z,89.60
2018-10-16T06:06:35.366Z,90.01
2018-10-16T06:09:05.197Z,88.97
2018-10-16T06:11:33.508Z,88.83
2018-10-16T06:14:02.057Z,88.56
2018-10-16T06:16:30.517Z,88.70
2018-10-16T06:18:58.885Z,89.22
2018-10-16T06:21:27.346Z,89.55
2018-10-16T06:23:55.715Z,90.13
2018-10-16T06:26:24.119Z,89.67
2018-10-16T06:28:52.430Z,90.50
2018-10-16T06:31:20.742Z,89.99
2018-10-16T06:33:49.280Z,90.40
2018-10-16T06:36:17.611Z,89.71
2018-10-16T06:38:46.029Z,88.62
2018-10-16T06:41:14.499Z,88.05
2018-10-16T06:43:42.941Z,88.02
2018-10-16T06:46:11.482Z,87.04
2018-10-16T06:48:40.089Z,88.11
2018-10-16T06:51:08.236Z,86.23
2018-10-16T06:53:36.612Z,81.72
2018-10-16T06:56:05.222Z,79.46
2018-10-16T06:58:33.699Z,79.41
2018-10-16T07:01:02.291Z,78.34
2018-10-16T07:03:30.706Z,77.23
2018-10-16T07:05:59.082Z,76.62
2018-10-16T07:08:27.436Z,76.02
2018-10-16T07:10:55.840Z,76.38
2018-10-16T07:13:43.936Z,75.92
2018-10-16T07:16:12.914Z,75.13
2018-10-16T07:18:41.604Z,73.95
2018-10-16T07:21:10.551Z,75.47
2018-10-16T07:23:38.863Z,76.17
2018-10-16T07:26:07.282Z,77.02
2018-10-16T07:28:35.626Z,77.64
2018-10-16T07:31:03.990Z,77.76
2018-10-16T07:33:33.398Z,77.83
2018-10-16T07:36:01.744Z,76.25
2018-10-16T07:38:31.176Z,75.19
2018-10-16T07:40:59.483Z,75.71
2018-10-16T07:43:27.861Z,74.55
2018-10-16T07:45:56.138Z,73.65
2018-10-16T07:48:26.588Z,73.47
2018-10-16T07:50:59.018Z,72.30
2018-10-16T07:53:27.357Z,73.02
2018-10-16T07:55:56.268Z,73.38
2018-10-16T07:58:24.601Z,72.84
2018-10-16T08:00:52.951Z,73.64
2018-10-16T08:03:21.257Z,77.06
2018-10-16T08:05:49.634Z,76.61
2018-10-16T08:08:17.965Z,77.89
2018-10-16T08:10:46.292Z,78.27
2018-10-16T08:13:14.669Z,79.47
2018-10-16T08:15:43.009Z,78.50
2018-10-16T08:18:11.323Z,77.66
2018-10-16T08:20:39.645Z,77.18
2018-10-16T08:23:07.940Z,75.95
2018-10-16T08:25:36.256Z,77.55
2018-10-16T08:28:04.629Z,79.28
2018-10-16T08:30:33.009Z,79.33
2018-10-16T08:33:01.272Z,78.72
2018-10-16T08:35:29.553Z,77.59
2018-10-16T08:39:06.970Z,77.66
2018-10-16T08:41:40.242Z,77.40
2018-10-16T08:45:16.390Z,77.68
2018-10-16T08:47:56.453Z,77.38
2018-10-16T08:50:37.306Z,76.44
2018-10-16T08:53:05.618Z,75.97
2018-10-16T08:55:34.474Z,76.36
2018-10-16T08:58:03.484Z,76.43
2018-10-16T09:00:31.816Z,75.93
2018-10-16T09:03:00.150Z,75.27
2018-10-16T09:05:28.762Z,76.92
2018-10-16T09:07:57.134Z,76.57
2018-10-16T09:10:25.703Z,76.41
2018-10-16T09:12:54.013Z,76.65
2018-10-16T09:15:22.922Z,76.97
2018-10-16T09:17:51.253Z,76.05
2018-10-16T09:20:19.560Z,76.87
2018-10-16T09:22:47.982Z,76.19
2018-10-16T09:25:16.306Z,76.23
2018-10-16T09:27:44.641Z,76.13
2018-10-16T09:30:13.982Z,75.84
2018-10-16T09:32:42.366Z,75.17
2018-10-16T09:35:11.973Z,75.22
2018-10-16T09:37:40.421Z,74.93
2018-10-16T09:40:10.739Z,74.84
2018-10-16T09:42:39.060Z,74.58
2018-10-16T09:45:08.385Z,75.37
2018-10-16T09:47:36.702Z,75.33
2018-10-16T09:50:05.904Z,75.28
2018-10-16T09:52:34.225Z,74.76
2018-10-16T09:55:02.509Z,73.40
2018-10-16T09:57:30.813Z,73.97
2018-10-16T09:59:59.129Z,73.97
2018-10-16T10:03:30.431Z,73.27
2018-10-16T10:05:58.709Z,73.52
2018-10-16T10:08:27.003Z,73.76
2018-10-16T10:10:55.314Z,73.62
2018-10-16T10:13:23.651Z,74.43
2018-10-16T10:15:52.093Z,73.33
2018-10-16T10:18:20.424Z,70.20
2018-10-16T10:20:48.716Z,68.71
2018-10-16T10:23:17.057Z,67.58
2018-10-16T10:25:45.333Z,67.06
2018-10-16T10:28:13.910Z,66.15
2018-10-16T10:30:42.248Z,66.21
2018-10-16T10:33:10.521Z,66.78
2018-10-16T10:35:38.911Z,66.40
2018-10-16T10:38:07.201Z,65.06
2018-10-16T10:40:35.476Z,65.74
2018-10-16T10:43:03.825Z,64.52
2018-10-16T10:45:32.109Z,64.84
2018-10-16T10:48:00.459Z,65.29
2018-10-16T10:50:28.895Z,65.19
2018-10-16T10:52:57.066Z,64.65
2018-10-16T10:55:25.431Z,63.44
2018-10-16T10:57:53.762Z,63.68
2018-10-16T11:00:22.044Z,63.62
2018-10-16T11:02:50.350Z,62.35
2018-10-16T11:05:18.683Z,63.30
2018-10-16T11:07:47.007Z,63.52
2018-10-16T11:10:15.362Z,63.68
2018-10-16T11:12:44.623Z,63.14
2018-10-16T11:15:13.000Z,63.16
2018-10-16T11:17:41.460Z,63.22
2018-10-16T11:20:11.769Z,63.88
2018-10-16T11:22:40.138Z,63.16
2018-10-16T11:25:09.336Z,63.57
2018-10-16T11:27:37.941Z,62.14
2018-10-16T11:30:10.159Z,62.74
2018-10-16T11:32:38.622Z,61.35
2018-10-16T11:35:07.535Z,62.27
2018-10-16T11:37:35.934Z,62.00
2018-10-16T11:40:04.349Z,61.36
2018-10-16T11:42:32.645Z,61.28
2018-10-16T11:45:01.340Z,60.80
2018-10-16T11:47:31.299Z,60.44
2018-10-16T11:49:59.680Z,60.78
2018-10-16T11:52:28.031Z,60.40
2018-10-16T11:54:56.431Z,60.50
2018-10-16T11:57:24.785Z,60.14
2018-10-16T11:59:53.066Z,60.16
2018-10-16T12:02:21.405Z,59.28
2018-10-16T12:04:49.843Z,58.57
2018-10-16T12:07:18.700Z,59.91
2018-10-16T12:09:47.226Z,60.08
2018-10-16T12:12:15.570Z,59.31
2018-10-16T12:14:43.917Z,59.70
2018-10-16T12:17:33.068Z,59.28
2018-10-16T12:20:05.903Z,58.59
2018-10-16T12:22:34.160Z,59.45
2018-10-16T12:25:02.484Z,59.80
2018-10-16T12:27:30.845Z,59.06
2018-10-16T12:29:59.230Z,59.33
2018-10-16T12:32:27.501Z,59.23
2018-10-16T12:34:55.846Z,59.95
2018-10-16T12:37:24.157Z,61.64
2018-10-16T12:39:52.563Z,60.73
2018-10-16T12:42:20.864Z,58.83
2018-10-16T12:44:49.178Z,59.30
2018-10-16T12:47:17.526Z,58.73
2018-10-16T12:49:45.806Z,58.67
2018-10-16T12:52:14.167Z,59.54
2018-10-16T12:54:42.651Z,58.58
2018-10-16T12:57:11.108Z,58.83
2018-10-16T12:59:39.429Z,58.65
2018-10-16T13:02:07.885Z,58.55
2018-10-16T13:04:36.191Z,58.24
2018-10-16T13:07:08.874Z,57.93
2018-10-16T13:09:37.226Z,59.05
2018-10-16T13:12:05.617Z,58.99
2018-10-16T13:14:33.899Z,59.43
2018-10-16T13:17:02.377Z,58.35
2018-10-16T13:19:30.553Z,57.64
2018-10-16T13:21:58.944Z,57.40
2018-10-16T13:24:27.298Z,58.53
2018-10-16T13:26:55.594Z,57.11
2018-10-16T13:29:24.030Z,56.86
2018-10-16T13:31:52.263Z,58.56
2018-10-16T13:34:20.597Z,57.61
2018-10-16T13:36:48.992Z,57.15
2018-10-16T13:39:17.297Z,57.20
2018-10-16T13:41:45.678Z,57.56
2018-10-16T13:44:14.139Z,57.65
2018-10-16T13:46:42.346Z,57.57
2018-10-16T13:49:10.613Z,57.07
2018-10-16T13:51:38.977Z,57.40
2018-10-16T13:54:07.385Z,58.47
2018-10-16T13:56:35.714Z,58.70
2018-10-16T13:59:04.183Z,57.26
2018-10-16T14:01:32.509Z,58.45
2018-10-16T14:04:00.853Z,57.61
2018-10-16T14:06:29.412Z,57.41
2018-10-16T14:08:57.685Z,57.41
2018-10-16T14:11:26.142Z,57.68
2018-10-16T14:13:54.495Z,57.70
2018-10-16T14:16:22.821Z,56.94
2018-10-16T14:18:51.091Z,56.58
2018-10-16T14:21:19.392Z,57.01
2018-10-16T14:23:47.681Z,57.18
2018-10-16T14:26:16.069Z,57.41
2018-10-16T14:28:44.421Z,58.74
2018-10-16T14:31:12.783Z,58.74
2018-10-16T14:33:41.154Z,57.51
2018-10-16T14:36:09.406Z,56.26
2018-10-16T14:38:37.720Z,56.72
2018-10-16T14:41:06.039Z,57.46
2018-10-16T14:43:34.337Z,57.03
2018-10-16T14:46:03.199Z,57.30
2018-10-16T14:48:31.506Z,57.57
2018-10-16T14:50:59.770Z,57.37
2018-10-16T14:53:28.113Z,57.27
2018-10-16T14:55:56.393Z,58.46
2018-10-16T14:58:24.713Z,58.63
2018-10-16T15:00:52.981Z,57.79
2018-10-16T15:03:21.287Z,58.85
2018-10-16T15:05:49.591Z,58.93
2018-10-16T15:08:17.946Z,58.54
2018-10-16T15:10:46.185Z,59.22
2018-10-16T15:13:14.503Z,58.90
2018-10-16T15:15:42.768Z,58.33
2018-10-16T15:18:11.080Z,59.02
2018-10-16T15:20:39.429Z,59.55
2018-10-16T15:23:07.743Z,59.31
2018-10-16T15:25:36.057Z,60.01
2018-10-16T15:28:04.390Z,59.91
2018-10-16T15:30:32.667Z,60.00
2018-10-16T15:33:00.955Z,59.58
2018-10-16T15:35:29.317Z,60.38
2018-10-16T15:37:57.623Z,60.29
2018-10-16T15:40:25.922Z,61.64
2018-10-16T15:42:54.375Z,60.73
2018-10-16T15:45:22.697Z,61.75
2018-10-16T15:47:50.992Z,62.62
2018-10-16T15:50:19.473Z,62.99
2018-10-16T15:52:47.802Z,62.82
2018-10-16T15:55:16.114Z,63.51
2018-10-16T15:57:44.460Z,63.60
2018-10-16T16:00:16.289Z,63.49
2018-10-16T16:02:44.627Z,64.31
2018-10-16T16:05:13.359Z,63.91
2018-10-16T16:07:41.705Z,63.93
2018-10-16T16:10:12.152Z,64.97
2018-10-16T16:12:40.453Z,64.69
2018-10-16T16:15:09.827Z,65.17
2018-10-16T16:17:38.217Z,65.26
2018-10-16T16:20:08.106Z,65.96
2018-10-16T16:22:36.461Z,66.02
2018-10-16T16:25:05.751Z,66.66
2018-10-16T16:27:34.039Z,66.45
2018-10-16T16:30:02.395Z,68.03
2018-10-16T16:32:30.661Z,69.12
2018-10-16T16:34:58.951Z,69.19
2018-10-16T16:37:27.566Z,69.91
2018-10-16T16:39:55.891Z,70.40
2018-10-16T16:42:24.186Z,70.40
2018-10-16T16:44:52.666Z,70.36
2018-10-16T16:47:21.106Z,70.77
2018-10-16T16:49:49.410Z,71.87
2018-10-16T16:52:17.733Z,70.86
2018-10-16T16:54:46.030Z,70.53
2018-10-16T16:57:14.294Z,71.52
2018-10-16T16:59:42.595Z,71.79
2018-10-16T17:02:10.968Z,71.72
2018-10-16T17:04:39.323Z,71.79
2018-10-16T17:07:07.563Z,69.79
2018-10-16T17:09:36.086Z,70.14
2018-10-16T17:12:04.759Z,69.79
2018-10-16T17:14:33.044Z,70.68
2018-10-16T17:17:01.454Z,70.30
2018-10-16T17:19:29.791Z,70.57
2018-10-16T17:21:58.247Z,71.07
2018-10-16T17:24:26.722Z,71.88
2018-10-16T17:26:55.140Z,72.17
2018-10-16T17:29:23.421Z,72.06
2018-10-16T17:31:51.665Z,72.88
2018-10-16T17:34:20.052Z,72.68
2018-10-16T17:36:48.313Z,71.87
2018-10-16T17:39:16.606Z,71.50
2018-10-16T17:41:44.885Z,72.09
2018-10-16T17:44:13.181Z,73.46
2018-10-16T17:46:41.458Z,75.31
2018-10-16T17:49:09.757Z,75.35
2018-10-16T17:51:38.080Z,76.12
2018-10-16T17:54:06.382Z,76.89
2018-10-16T17:56:34.852Z,77.63
2018-10-16T17:59:03.287Z,78.17
2018-10-16T18:01:31.614Z,78.24
2018-10-16T18:04:00.002Z,78.31
2018-10-16T18:06:28.313Z,78.91
2018-10-16T18:08:56.582Z,78.93
2018-10-16T18:11:24.985Z,78.95
2018-10-16T18:13:53.297Z,79.20
2018-10-16T18:16:21.698Z,79.41
2018-10-16T18:18:49.985Z,80.25
2018-10-16T18:21:19.842Z,80.61
2018-10-16T18:23:48.790Z,80.34
2018-10-16T18:26:17.213Z,80.36
2018-10-16T18:28:45.520Z,80.47
2018-10-16T18:31:13.843Z,80.39
2018-10-16T18:33:48.480Z,81.02
2018-10-16T18:36:16.826Z,80.94
2018-10-16T18:38:45.112Z,81.26
2018-10-16T18:41:13.445Z,81.89
2018-10-16T18:43:41.725Z,82.24
2018-10-16T18:46:10.143Z,82.24
2018-10-16T18:48:38.557Z,82.80
2018-10-16T18:51:08.696Z,82.84
2018-10-16T18:53:43.563Z,82.94
2018-10-16T18:56:12.066Z,82.44
2018-10-16T18:58:40.485Z,83.17
2018-10-16T19:01:08.804Z,82.86
2018-10-16T19:03:37.141Z,82.80
2018-10-16T19:06:05.541Z,82.82
2018-10-16T19:08:34.033Z,82.90
2018-10-16T19:11:02.568Z,83.27
2018-10-16T19:13:30.919Z,83.12
2018-10-16T19:15:59.248Z,83.37
2018-10-16T19:18:27.535Z,83.77
2018-10-16T19:20:55.929Z,83.61
2018-10-16T19:23:30.750Z,83.57
2018-10-16T19:25:59.127Z,83.80
2018-10-16T19:28:27.487Z,83.97
2018-10-16T19:30:55.850Z,84.10
2018-10-16T19:33:24.187Z,84.58
2018-10-16T19:35:52.563Z,84.66
2018-10-16T19:38:20.916Z,84.31
2018-10-16T19:40:49.308Z,85.17
2018-10-16T19:43:17.671Z,85.48
2018-10-16T19:45:47.178Z,85.42
2018-10-16T19:48:15.751Z,85.33
2018-10-16T19:50:44.331Z,84.86
2018-10-16T19:53:12.751Z,85.33
2018-10-16T19:55:41.571Z,85.73
2018-10-16T19:58:09.955Z,85.86
2018-10-16T20:00:38.374Z,85.66
2018-10-16T20:03:06.754Z,85.69
2018-10-16T20:05:35.127Z,86.32
2018-10-16T20:08:03.480Z,86.05
2018-10-16T20:10:31.841Z,85.85
2018-10-16T20:13:00.309Z,85.66
2018-10-16T20:15:28.760Z,86.05
2018-10-16T20:17:57.070Z,85.59
2018-10-16T20:20:25.487Z,85.72
2018-10-16T20:22:54.211Z,85.44
2018-10-16T20:25:22.616Z,85.67
2018-10-16T20:27:50.946Z,85.73
2018-10-16T20:30:19.326Z,85.29
2018-10-16T20:32:47.747Z,85.72
2018-10-16T20:35:16.093Z,86.39
2018-10-16T20:37:44.456Z,86.22
2018-10-16T20:40:12.873Z,86.24
2018-10-16T20:42:41.259Z,86.46
2018-10-16T20:45:09.682Z,86.80
2018-10-16T20:47:38.399Z,86.54
2018-10-16T20:50:07.837Z,87.32
2018-10-16T20:52:36.223Z,87.82
2018-10-16T20:55:04.689Z,86.70
2018-10-16T20:57:33.180Z,86.67
2018-10-16T21:00:02.484Z,87.11
2018-10-16T21:02:31.871Z,87.10
2018-10-16T21:05:00.502Z,87.02
2018-10-16T21:07:29.441Z,87.02
2018-10-16T21:09:57.736Z,87.00
2018-10-16T21:12:26.161Z,86.69
2018-10-16T21:14:54.624Z,87.53
2018-10-16T21:17:22.999Z,88.06
2018-10-16T21:19:51.352Z,87.40
2018-10-16T21:22:19.717Z,87.35
2018-10-16T21:24:48.054Z,87.07
2018-10-16T21:27:16.558Z,87.63
2018-10-16T21:29:44.874Z,87.45
2018-10-16T21:32:13.217Z,87.61
2018-10-16T21:34:41.588Z,88.11
2018-10-16T21:37:10.146Z,87.85
2018-10-16T21:39:38.428Z,87.91
2018-10-16T21:42:06.794Z,88.08
2018-10-16T21:44:35.150Z,88.16
2018-10-16T21:47:03.586Z,88.29
2018-10-16T21:49:31.878Z,88.14
2018-10-16T21:52:00.223Z,87.98
2018-10-16T21:54:28.698Z,88.03
2018-10-16T21:56:57.116Z,87.59
2018-10-16T21:59:25.487Z,87.18
2018-10-16T22:01:59.133Z,87.70
2018-10-16T22:04:27.715Z,88.29
2018-10-16T22:06:56.223Z,88.60
2018-10-16T22:09:24.549Z,87.85
2018-10-16T22:11:52.926Z,88.56
2018-10-16T22:14:22.355Z,88.02
2018-10-16T22:16:50.737Z,87.47
2018-10-16T22:19:19.150Z,87.97
2018-10-16T22:21:47.486Z,88.61
2018-10-16T22:24:15.807Z,88.35
2018-10-16T22:26:44.176Z,88.09
2018-10-16T22:29:12.622Z,87.75
2018-10-16T22:31:40.902Z,88.97
2018-10-16T22:34:09.252Z,90.68
2018-10-16T22:36:38.191Z,91.00
2018-10-16T22:39:08.670Z,90.62
2018-10-16T22:41:37.370Z,90.77
2018-10-16T22:44:06.517Z,90.36
2018-10-16T22:46:35.090Z,89.46
2018-10-16T22:49:03.495Z,90.56
2018-10-16T22:51:31.812Z,91.22
2018-10-16T22:54:00.318Z,90.47
2018-10-16T22:56:28.685Z,90.28
2018-10-16T22:58:57.003Z,90.58
2018-10-16T23:01:25.410Z,90.67
2018-10-16T23:03:53.826Z,90.71
2018-10-16T23:06:22.138Z,90.34
2018-10-16T23:08:50.554Z,89.64
2018-10-16T23:11:19.015Z,88.76
2018-10-16T23:13:47.281Z,88.48
2018-10-16T23:16:15.813Z,88.95
2018-10-16T23:18:44.292Z,90.24
2018-10-16T23:21:12.646Z,90.38
2018-10-16T23:23:40.999Z,90.94
2018-10-16T23:26:09.553Z,90.36
2018-10-16T23:28:38.317Z,90.34
2018-10-16T23:31:06.906Z,90.54
2018-10-16T23:33:35.527Z,90.93
2018-10-16T23:36:03.854Z,90.45
2018-10-16T23:38:32.230Z,91.05
2018-10-16T23:41:00.594Z,90.77
2018-10-16T23:43:28.955Z,90.59
2018-10-16T23:45:57.274Z,91.23
2018-10-16T23:48:25.682Z,91.43
2018-10-16T23:50:54.019Z,91.98
2018-10-16T23:53:22.372Z,91.46
2018-10-16T23:55:50.802Z,90.84
2018-10-16T23:58:19.138Z,90.85
